sensor_id;sensor_type;location;lat;lon;timestamp;P1;durP1;ratioP1;P2;durP2;ratioP2
12334;SDS011;6233;51.560;9.986;2023-05-10T00:01:14;4.03;;;3.30;;
12334;SDS011;6233;51.560;9.986;2023-05-10T00:04:15;3.20;;;2.90;;
12334;SDS011;6233;51.560;9.986;2023-05-10T00:07:17;3.00;;;2.80;;
12334;SDS011;6233;51.560;9.986;2023-05-10T00:10:19;5.47;;;3.10;;
12334;SDS011;6233;51.560;9.986;2023-05-10T00:13:21;4.03;;;2.70;;
12334;SDS011;6233;51.560;9.986;2023-05-10T00:16:23;6.10;;;2.87;;
12334;SDS011;6233;51.560;9.986;2023-05-10T00:19:25;4.73;;;3.20;;
12334;SDS011;6233;51.560;9.986;2023-05-10T00:22:26;4.43;;;3.03;;
12334;SDS011;6233;51.560;9.986;2023-05-10T00:25:28;3.47;;;2.87;;
12334;SDS011;6233;51.560;9.986;2023-05-10T00:28:30;5.60;;;3.50;;
12334;SDS011;6233;51.560;9.986;2023-05-10T00:31:31;3.40;;;3.07;;
12334;SDS011;6233;51.560;9.986;2023-05-10T00:34:33;4.53;;;3.00;;
12334;SDS011;6233;51.560;9.986;2023-05-10T00:37:35;6.10;;;3.40;;
12334;SDS011;6233;51.560;9.986;2023-05-10T00:40:36;5.00;;;3.10;;
12334;SDS011;6233;51.560;9.986;2023-05-10T00:43:38;4.07;;;3.40;;
12334;SDS011;6233;51.560;9.986;2023-05-10T00:46:40;4.90;;;3.00;;
12334;SDS011;6233;51.560;9.986;2023-05-10T00:49:43;3.43;;;3.03;;
12334;SDS011;6233;51.560;9.986;2023-05-10T00:52:45;3.47;;;3.17;;
12334;SDS011;6233;51.560;9.986;2023-05-10T00:55:47;3.37;;;2.70;;
12334;SDS011;6233;51.560;9.986;2023-05-10T00:58:49;4.80;;;3.17;;
12334;SDS011;6233;51.560;9.986;2023-05-10T01:01:51;4.30;;;3.43;;
12334;SDS011;6233;51.560;9.986;2023-05-10T01:04:54;3.60;;;3.30;;
12334;SDS011;6233;51.560;9.986;2023-05-10T01:07:56;6.23;;;3.40;;
12334;SDS011;6233;51.560;9.986;2023-05-10T01:10:58;5.00;;;3.00;;
12334;SDS011;6233;51.560;9.986;2023-05-10T01:14:00;4.50;;;3.33;;
12334;SDS011;6233;51.560;9.986;2023-05-10T01:17:02;4.57;;;3.33;;
12334;SDS011;6233;51.560;9.986;2023-05-10T01:20:06;3.40;;;3.10;;
12334;SDS011;6233;51.560;9.986;2023-05-10T01:30:25;3.83;;;3.47;;
12334;SDS011;6233;51.560;9.986;2023-05-10T01:37:30;3.43;;;3.13;;
12334;SDS011;6233;51.560;9.986;2023-05-10T01:40:55;3.70;;;3.40;;
12334;SDS011;6233;51.560;9.986;2023-05-10T01:44:11;4.83;;;3.30;;
12334;SDS011;6233;51.560;9.986;2023-05-10T01:47:40;4.10;;;3.20;;
12334;SDS011;6233;51.560;9.986;2023-05-10T01:50:45;3.80;;;3.43;;
12334;SDS011;6233;51.560;9.986;2023-05-10T01:53:48;6.37;;;3.33;;
12334;SDS011;6233;51.560;9.986;2023-05-10T02:00:03;3.87;;;3.47;;
12334;SDS011;6233;51.560;9.986;2023-05-10T02:03:06;4.13;;;2.87;;
12334;SDS011;6233;51.560;9.986;2023-05-10T02:06:11;3.50;;;3.20;;
12334;SDS011;6233;51.560;9.986;2023-05-10T02:09:15;4.10;;;3.40;;
12334;SDS011;6233;51.560;9.986;2023-05-10T02:12:18;3.67;;;3.37;;
12334;SDS011;6233;51.560;9.986;2023-05-10T02:15:22;3.67;;;3.40;;
12334;SDS011;6233;51.560;9.986;2023-05-10T02:18:25;3.80;;;3.40;;
12334;SDS011;6233;51.560;9.986;2023-05-10T02:21:29;4.17;;;3.43;;
12334;SDS011;6233;51.560;9.986;2023-05-10T02:24:32;5.13;;;3.57;;
12334;SDS011;6233;51.560;9.986;2023-05-10T02:27:35;4.73;;;3.70;;
12334;SDS011;6233;51.560;9.986;2023-05-10T02:30:38;4.47;;;3.37;;
12334;SDS011;6233;51.560;9.986;2023-05-10T02:33:40;3.43;;;3.13;;
12334;SDS011;6233;51.560;9.986;2023-05-10T02:36:43;4.03;;;3.40;;
12334;SDS011;6233;51.560;9.986;2023-05-10T02:39:46;3.97;;;3.30;;
12334;SDS011;6233;51.560;9.986;2023-05-10T02:42:50;4.40;;;4.00;;
12334;SDS011;6233;51.560;9.986;2023-05-10T02:45:55;3.43;;;3.13;;
12334;SDS011;6233;51.560;9.986;2023-05-10T02:48:57;4.60;;;3.60;;
12334;SDS011;6233;51.560;9.986;2023-05-10T02:52:00;4.00;;;3.60;;
12334;SDS011;6233;51.560;9.986;2023-05-10T02:55:05;4.10;;;3.67;;
12334;SDS011;6233;51.560;9.986;2023-05-10T02:58:09;4.33;;;3.53;;
12334;SDS011;6233;51.560;9.986;2023-05-10T03:01:11;7.87;;;3.87;;
12334;SDS011;6233;51.560;9.986;2023-05-10T03:04:13;3.60;;;3.30;;
12334;SDS011;6233;51.560;9.986;2023-05-10T03:07:14;3.73;;;3.37;;
12334;SDS011;6233;51.560;9.986;2023-05-10T03:10:21;3.90;;;3.53;;
12334;SDS011;6233;51.560;9.986;2023-05-10T03:13:44;4.00;;;3.60;;
12334;SDS011;6233;51.560;9.986;2023-05-10T03:17:04;4.83;;;4.00;;
12334;SDS011;6233;51.560;9.986;2023-05-10T03:20:31;4.17;;;3.50;;
12334;SDS011;6233;51.560;9.986;2023-05-10T03:23:48;4.17;;;3.77;;
12334;SDS011;6233;51.560;9.986;2023-05-10T03:26:55;5.27;;;3.93;;
12334;SDS011;6233;51.560;9.986;2023-05-10T03:30:00;4.47;;;4.07;;
12334;SDS011;6233;51.560;9.986;2023-05-10T03:33:06;4.40;;;4.00;;
12334;SDS011;6233;51.560;9.986;2023-05-10T03:36:08;5.80;;;3.97;;
12334;SDS011;6233;51.560;9.986;2023-05-10T03:39:09;4.10;;;3.70;;
12334;SDS011;6233;51.560;9.986;2023-05-10T03:42:11;4.40;;;4.00;;
12334;SDS011;6233;51.560;9.986;2023-05-10T03:45:13;5.10;;;4.60;;
12334;SDS011;6233;51.560;9.986;2023-05-10T03:48:15;5.37;;;4.37;;
12334;SDS011;6233;51.560;9.986;2023-05-10T03:51:17;5.00;;;4.30;;
12334;SDS011;6233;51.560;9.986;2023-05-10T03:54:18;5.20;;;4.40;;
12334;SDS011;6233;51.560;9.986;2023-05-10T03:57:20;6.43;;;4.67;;
12334;SDS011;6233;51.560;9.986;2023-05-10T04:00:22;5.47;;;4.23;;
12334;SDS011;6233;51.560;9.986;2023-05-10T04:03:23;5.07;;;4.23;;
12334;SDS011;6233;51.560;9.986;2023-05-10T04:06:27;5.00;;;4.60;;
12334;SDS011;6233;51.560;9.986;2023-05-10T04:09:28;5.47;;;4.83;;
12334;SDS011;6233;51.560;9.986;2023-05-10T04:12:30;5.57;;;5.07;;
12334;SDS011;6233;51.560;9.986;2023-05-10T04:15:32;6.47;;;5.40;;
12334;SDS011;6233;51.560;9.986;2023-05-10T04:18:33;5.37;;;4.87;;
12334;SDS011;6233;51.560;9.986;2023-05-10T04:21:36;5.47;;;4.97;;
12334;SDS011;6233;51.560;9.986;2023-05-10T04:24:37;8.67;;;7.73;;
12334;SDS011;6233;51.560;9.986;2023-05-10T04:27:39;9.20;;;7.27;;
12334;SDS011;6233;51.560;9.986;2023-05-10T04:30:41;6.70;;;6.07;;
12334;SDS011;6233;51.560;9.986;2023-05-10T04:33:43;6.73;;;6.13;;
12334;SDS011;6233;51.560;9.986;2023-05-10T04:36:45;6.50;;;5.80;;
12334;SDS011;6233;51.560;9.986;2023-05-10T04:39:46;7.93;;;5.80;;
12334;SDS011;6233;51.560;9.986;2023-05-10T04:42:48;10.20;;;8.80;;
12334;SDS011;6233;51.560;9.986;2023-05-10T04:45:50;11.67;;;9.70;;
12334;SDS011;6233;51.560;9.986;2023-05-10T04:48:52;7.83;;;7.03;;
12334;SDS011;6233;51.560;9.986;2023-05-10T04:51:53;6.97;;;6.27;;
12334;SDS011;6233;51.560;9.986;2023-05-10T04:54:55;6.47;;;5.87;;
12334;SDS011;6233;51.560;9.986;2023-05-10T04:57:57;7.50;;;6.77;;
12334;SDS011;6233;51.560;9.986;2023-05-10T05:01:06;6.73;;;5.87;;
12334;SDS011;6233;51.560;9.986;2023-05-10T05:04:09;6.73;;;6.03;;
12334;SDS011;6233;51.560;9.986;2023-05-10T05:07:11;7.67;;;6.73;;
12334;SDS011;6233;51.560;9.986;2023-05-10T05:10:12;8.57;;;7.70;;
12334;SDS011;6233;51.560;9.986;2023-05-10T05:13:14;9.17;;;6.87;;
12334;SDS011;6233;51.560;9.986;2023-05-10T05:16:16;6.53;;;5.90;;
12334;SDS011;6233;51.560;9.986;2023-05-10T05:19:18;8.00;;;6.30;;
12334;SDS011;6233;51.560;9.986;2023-05-10T05:22:20;6.13;;;5.33;;
12334;SDS011;6233;51.560;9.986;2023-05-10T05:25:28;6.87;;;6.17;;
12334;SDS011;6233;51.560;9.986;2023-05-10T05:28:30;6.20;;;5.33;;
12334;SDS011;6233;51.560;9.986;2023-05-10T05:31:34;7.57;;;6.73;;
12334;SDS011;6233;51.560;9.986;2023-05-10T05:34:35;7.50;;;5.13;;
12334;SDS011;6233;51.560;9.986;2023-05-10T05:37:37;6.03;;;5.40;;
12334;SDS011;6233;51.560;9.986;2023-05-10T05:40:39;7.27;;;6.00;;
12334;SDS011;6233;51.560;9.986;2023-05-10T05:43:40;5.57;;;5.07;;
12334;SDS011;6233;51.560;9.986;2023-05-10T05:46:42;5.67;;;5.17;;
12334;SDS011;6233;51.560;9.986;2023-05-10T05:49:45;6.10;;;5.47;;
12334;SDS011;6233;51.560;9.986;2023-05-10T05:52:47;6.67;;;6.07;;
12334;SDS011;6233;51.560;9.986;2023-05-10T05:55:52;7.53;;;5.77;;
12334;SDS011;6233;51.560;9.986;2023-05-10T05:58:54;5.90;;;5.30;;
12334;SDS011;6233;51.560;9.986;2023-05-10T06:01:56;5.07;;;4.57;;
12334;SDS011;6233;51.560;9.986;2023-05-10T06:04:58;5.30;;;4.47;;
12334;SDS011;6233;51.560;9.986;2023-05-10T06:08:00;4.93;;;3.93;;
12334;SDS011;6233;51.560;9.986;2023-05-10T06:11:02;3.77;;;3.47;;
12334;SDS011;6233;51.560;9.986;2023-05-10T06:14:05;4.17;;;3.80;;
12334;SDS011;6233;51.560;9.986;2023-05-10T06:17:08;4.37;;;3.97;;
12334;SDS011;6233;51.560;9.986;2023-05-10T06:20:10;4.53;;;3.83;;
12334;SDS011;6233;51.560;9.986;2023-05-10T06:23:12;4.07;;;3.67;;
12334;SDS011;6233;51.560;9.986;2023-05-10T06:26:14;4.37;;;3.80;;
12334;SDS011;6233;51.560;9.986;2023-05-10T06:29:15;4.43;;;4.03;;
12334;SDS011;6233;51.560;9.986;2023-05-10T06:32:17;5.60;;;3.80;;
12334;SDS011;6233;51.560;9.986;2023-05-10T06:35:19;4.47;;;4.07;;
12334;SDS011;6233;51.560;9.986;2023-05-10T06:38:21;4.90;;;3.60;;
12334;SDS011;6233;51.560;9.986;2023-05-10T06:41:22;4.63;;;4.07;;
12334;SDS011;6233;51.560;9.986;2023-05-10T06:44:25;4.53;;;4.13;;
12334;SDS011;6233;51.560;9.986;2023-05-10T06:47:26;8.03;;;6.60;;
12334;SDS011;6233;51.560;9.986;2023-05-10T06:50:28;4.23;;;3.83;;
12334;SDS011;6233;51.560;9.986;2023-05-10T06:53:30;5.83;;;4.87;;
12334;SDS011;6233;51.560;9.986;2023-05-10T06:56:32;4.40;;;3.70;;
12334;SDS011;6233;51.560;9.986;2023-05-10T06:59:33;6.70;;;5.30;;
12334;SDS011;6233;51.560;9.986;2023-05-10T07:02:35;4.40;;;4.00;;
12334;SDS011;6233;51.560;9.986;2023-05-10T07:05:37;4.30;;;3.57;;
12334;SDS011;6233;51.560;9.986;2023-05-10T07:08:39;3.93;;;3.63;;
12334;SDS011;6233;51.560;9.986;2023-05-10T07:11:41;4.20;;;3.80;;
12334;SDS011;6233;51.560;9.986;2023-05-10T07:14:43;3.27;;;2.97;;
12334;SDS011;6233;51.560;9.986;2023-05-10T07:17:44;3.57;;;3.10;;
12334;SDS011;6233;51.560;9.986;2023-05-10T07:20:46;3.53;;;2.97;;
12334;SDS011;6233;51.560;9.986;2023-05-10T07:23:48;3.20;;;2.90;;
12334;SDS011;6233;51.560;9.986;2023-05-10T07:26:50;3.63;;;3.30;;
12334;SDS011;6233;51.560;9.986;2023-05-10T07:33:38;2.37;;;2.10;;
12334;SDS011;6233;51.560;9.986;2023-05-10T07:36:47;2.80;;;2.60;;
12334;SDS011;6233;51.560;9.986;2023-05-10T07:39:49;3.20;;;2.70;;
12334;SDS011;6233;51.560;9.986;2023-05-10T07:42:51;2.67;;;2.43;;
12334;SDS011;6233;51.560;9.986;2023-05-10T07:45:53;3.13;;;2.67;;
12334;SDS011;6233;51.560;9.986;2023-05-10T07:48:56;1.30;;;1.20;;
12334;SDS011;6233;51.560;9.986;2023-05-10T07:51:58;1.60;;;1.50;;
12334;SDS011;6233;51.560;9.986;2023-05-10T07:55:18;1.50;;;1.33;;
12334;SDS011;6233;51.560;9.986;2023-05-10T07:58:20;3.37;;;2.77;;
12334;SDS011;6233;51.560;9.986;2023-05-10T08:01:22;2.30;;;2.10;;
12334;SDS011;6233;51.560;9.986;2023-05-10T08:04:24;1.70;;;1.10;;
12334;SDS011;6233;51.560;9.986;2023-05-10T08:07:26;0.90;;;0.90;;
12334;SDS011;6233;51.560;9.986;2023-05-10T08:10:27;0.93;;;0.93;;
12334;SDS011;6233;51.560;9.986;2023-05-10T08:13:29;1.20;;;1.10;;
12334;SDS011;6233;51.560;9.986;2023-05-10T08:16:32;1.47;;;1.37;;
12334;SDS011;6233;51.560;9.986;2023-05-10T08:23:32;1.10;;;1.10;;
12334;SDS011;6233;51.560;9.986;2023-05-10T08:26:40;1.00;;;1.00;;
12334;SDS011;6233;51.560;9.986;2023-05-10T08:29:47;2.00;;;1.80;;
12334;SDS011;6233;51.560;9.986;2023-05-10T08:36:20;1.17;;;1.17;;
12334;SDS011;6233;51.560;9.986;2023-05-10T08:39:25;1.40;;;1.30;;
12334;SDS011;6233;51.560;9.986;2023-05-10T08:42:31;1.30;;;1.20;;
12334;SDS011;6233;51.560;9.986;2023-05-10T08:45:38;1.37;;;1.20;;
12334;SDS011;6233;51.560;9.986;2023-05-10T08:48:41;1.47;;;1.37;;
12334;SDS011;6233;51.560;9.986;2023-05-10T08:51:50;3.33;;;1.33;;
12334;SDS011;6233;51.560;9.986;2023-05-10T08:54:54;1.40;;;1.30;;
12334;SDS011;6233;51.560;9.986;2023-05-10T08:57:56;1.70;;;1.60;;
12334;SDS011;6233;51.560;9.986;2023-05-10T09:00:58;2.20;;;1.40;;
12334;SDS011;6233;51.560;9.986;2023-05-10T09:04:00;1.70;;;1.60;;
12334;SDS011;6233;51.560;9.986;2023-05-10T09:07:02;1.67;;;1.53;;
12334;SDS011;6233;51.560;9.986;2023-05-10T09:10:04;1.90;;;1.60;;
12334;SDS011;6233;51.560;9.986;2023-05-10T09:13:07;1.40;;;1.30;;
12334;SDS011;6233;51.560;9.986;2023-05-10T09:16:10;1.20;;;1.20;;
12334;SDS011;6233;51.560;9.986;2023-05-10T09:19:22;2.80;;;1.50;;
12334;SDS011;6233;51.560;9.986;2023-05-10T09:22:24;1.23;;;1.13;;
12334;SDS011;6233;51.560;9.986;2023-05-10T09:25:26;1.00;;;0.87;;
12334;SDS011;6233;51.560;9.986;2023-05-10T09:28:31;0.90;;;0.90;;
12334;SDS011;6233;51.560;9.986;2023-05-10T09:31:43;0.97;;;0.97;;
12334;SDS011;6233;51.560;9.986;2023-05-10T09:34:46;1.23;;;1.00;;
12334;SDS011;6233;51.560;9.986;2023-05-10T09:37:51;1.80;;;1.00;;
12334;SDS011;6233;51.560;9.986;2023-05-10T09:40:57;3.97;;;1.40;;
12334;SDS011;6233;51.560;9.986;2023-05-10T09:47:33;1.97;;;0.70;;
12334;SDS011;6233;51.560;9.986;2023-05-10T09:50:36;1.37;;;0.77;;
12334;SDS011;6233;51.560;9.986;2023-05-10T09:53:38;1.07;;;0.53;;
12334;SDS011;6233;51.560;9.986;2023-05-10T09:56:39;0.70;;;0.70;;
12334;SDS011;6233;51.560;9.986;2023-05-10T09:59:42;9.13;;;2.77;;
12334;SDS011;6233;51.560;9.986;2023-05-10T10:02:47;4.40;;;1.10;;
12334;SDS011;6233;51.560;9.986;2023-05-10T10:05:55;1.23;;;0.90;;
12334;SDS011;6233;51.560;9.986;2023-05-10T10:08:58;9.30;;;7.50;;
12334;SDS011;6233;51.560;9.986;2023-05-10T10:12:00;1.67;;;1.20;;
12334;SDS011;6233;51.560;9.986;2023-05-10T10:15:03;1.20;;;1.10;;
12334;SDS011;6233;51.560;9.986;2023-05-10T10:18:06;2.00;;;1.80;;
12334;SDS011;6233;51.560;9.986;2023-05-10T10:21:09;1.37;;;1.10;;
12334;SDS011;6233;51.560;9.986;2023-05-10T10:24:11;1.20;;;1.10;;
12334;SDS011;6233;51.560;9.986;2023-05-10T10:27:15;2.00;;;1.07;;
12334;SDS011;6233;51.560;9.986;2023-05-10T10:34:26;1.23;;;1.13;;
12334;SDS011;6233;51.560;9.986;2023-05-10T10:37:45;1.30;;;1.10;;
12334;SDS011;6233;51.560;9.986;2023-05-10T10:40:48;1.03;;;0.93;;
12334;SDS011;6233;51.560;9.986;2023-05-10T10:43:50;2.10;;;1.90;;
12334;SDS011;6233;51.560;9.986;2023-05-10T10:47:28;0.93;;;0.90;;
12334;SDS011;6233;51.560;9.986;2023-05-10T10:50:42;2.17;;;1.40;;
12334;SDS011;6233;51.560;9.986;2023-05-10T10:53:47;1.17;;;1.07;;
12334;SDS011;6233;51.560;9.986;2023-05-10T10:57:09;2.40;;;1.20;;
12334;SDS011;6233;51.560;9.986;2023-05-10T11:00:28;1.10;;;1.00;;
12334;SDS011;6233;51.560;9.986;2023-05-10T11:03:33;2.00;;;1.27;;
12334;SDS011;6233;51.560;9.986;2023-05-10T11:06:35;3.03;;;1.10;;
12334;SDS011;6233;51.560;9.986;2023-05-10T11:09:40;2.17;;;1.03;;
12334;SDS011;6233;51.560;9.986;2023-05-10T11:12:52;2.30;;;1.40;;
12334;SDS011;6233;51.560;9.986;2023-05-10T11:16:20;2.93;;;1.10;;
12334;SDS011;6233;51.560;9.986;2023-05-10T11:19:29;2.00;;;1.10;;
12334;SDS011;6233;51.560;9.986;2023-05-10T11:22:31;1.40;;;1.30;;
12334;SDS011;6233;51.560;9.986;2023-05-10T11:25:53;2.60;;;1.30;;
12334;SDS011;6233;51.560;9.986;2023-05-10T11:32:19;4.03;;;1.60;;
12334;SDS011;6233;51.560;9.986;2023-05-10T11:35:21;2.27;;;1.90;;
12334;SDS011;6233;51.560;9.986;2023-05-10T11:38:23;2.90;;;1.80;;
12334;SDS011;6233;51.560;9.986;2023-05-10T11:41:25;2.00;;;1.50;;
12334;SDS011;6233;51.560;9.986;2023-05-10T11:44:30;2.40;;;1.80;;
12334;SDS011;6233;51.560;9.986;2023-05-10T11:47:32;1.77;;;1.43;;
12334;SDS011;6233;51.560;9.986;2023-05-10T11:50:36;1.40;;;1.30;;
12334;SDS011;6233;51.560;9.986;2023-05-10T11:53:38;1.70;;;1.57;;
12334;SDS011;6233;51.560;9.986;2023-05-10T11:56:40;1.77;;;1.30;;
12334;SDS011;6233;51.560;9.986;2023-05-10T11:59:42;2.27;;;1.60;;
12334;SDS011;6233;51.560;9.986;2023-05-10T12:02:43;1.40;;;1.30;;
12334;SDS011;6233;51.560;9.986;2023-05-10T12:05:45;1.50;;;1.40;;
12334;SDS011;6233;51.560;9.986;2023-05-10T12:08:48;2.70;;;1.20;;
12334;SDS011;6233;51.560;9.986;2023-05-10T12:11:55;1.30;;;1.20;;
12334;SDS011;6233;51.560;9.986;2023-05-10T12:15:01;2.07;;;1.20;;
12334;SDS011;6233;51.560;9.986;2023-05-10T12:18:04;1.17;;;1.03;;
12334;SDS011;6233;51.560;9.986;2023-05-10T12:21:06;1.77;;;1.43;;
12334;SDS011;6233;51.560;9.986;2023-05-10T12:24:08;1.70;;;1.60;;
12334;SDS011;6233;51.560;9.986;2023-05-10T12:27:10;2.27;;;1.97;;
12334;SDS011;6233;51.560;9.986;2023-05-10T12:30:13;2.73;;;1.70;;
12334;SDS011;6233;51.560;9.986;2023-05-10T12:36:51;1.93;;;1.60;;
12334;SDS011;6233;51.560;9.986;2023-05-10T12:39:54;2.50;;;1.70;;
12334;SDS011;6233;51.560;9.986;2023-05-10T12:42:55;3.07;;;2.20;;
12334;SDS011;6233;51.560;9.986;2023-05-10T12:45:57;2.40;;;2.10;;
12334;SDS011;6233;51.560;9.986;2023-05-10T12:49:00;2.43;;;2.23;;
12334;SDS011;6233;51.560;9.986;2023-05-10T12:52:09;2.67;;;2.47;;
12334;SDS011;6233;51.560;9.986;2023-05-10T12:55:11;2.83;;;2.60;;
12334;SDS011;6233;51.560;9.986;2023-05-10T12:58:13;4.33;;;2.50;;
12334;SDS011;6233;51.560;9.986;2023-05-10T13:01:35;3.00;;;2.50;;
12334;SDS011;6233;51.560;9.986;2023-05-10T13:04:37;2.93;;;2.73;;
12334;SDS011;6233;51.560;9.986;2023-05-10T13:07:40;2.87;;;2.50;;
12334;SDS011;6233;51.560;9.986;2023-05-10T13:10:42;3.57;;;2.67;;
12334;SDS011;6233;51.560;9.986;2023-05-10T13:13:51;3.13;;;2.60;;
12334;SDS011;6233;51.560;9.986;2023-05-10T13:16:53;3.27;;;3.00;;
12334;SDS011;6233;51.560;9.986;2023-05-10T13:19:55;3.27;;;2.97;;
12334;SDS011;6233;51.560;9.986;2023-05-10T13:22:56;2.53;;;2.33;;
12334;SDS011;6233;51.560;9.986;2023-05-10T13:25:58;2.60;;;2.40;;
12334;SDS011;6233;51.560;9.986;2023-05-10T13:29:00;2.90;;;2.60;;
12334;SDS011;6233;51.560;9.986;2023-05-10T13:32:01;3.27;;;2.37;;
12334;SDS011;6233;51.560;9.986;2023-05-10T13:35:03;2.43;;;2.23;;
12334;SDS011;6233;51.560;9.986;2023-05-10T13:38:06;2.83;;;2.10;;
12334;SDS011;6233;51.560;9.986;2023-05-10T13:41:09;5.63;;;2.60;;
12334;SDS011;6233;51.560;9.986;2023-05-10T13:44:12;2.80;;;2.53;;
12334;SDS011;6233;51.560;9.986;2023-05-10T13:47:15;3.93;;;2.30;;
12334;SDS011;6233;51.560;9.986;2023-05-10T13:50:17;3.47;;;2.67;;
12334;SDS011;6233;51.560;9.986;2023-05-10T13:53:19;2.83;;;2.40;;
12334;SDS011;6233;51.560;9.986;2023-05-10T13:56:21;2.97;;;2.60;;
12334;SDS011;6233;51.560;9.986;2023-05-10T13:59:23;3.00;;;2.33;;
12334;SDS011;6233;51.560;9.986;2023-05-10T14:02:24;2.90;;;2.50;;
12334;SDS011;6233;51.560;9.986;2023-05-10T14:05:28;2.80;;;2.60;;
12334;SDS011;6233;51.560;9.986;2023-05-10T14:08:30;5.13;;;3.27;;
12334;SDS011;6233;51.560;9.986;2023-05-10T14:11:32;3.73;;;3.33;;
12334;SDS011;6233;51.560;9.986;2023-05-10T14:14:33;3.07;;;2.77;;
12334;SDS011;6233;51.560;9.986;2023-05-10T14:17:35;3.33;;;3.03;;
12334;SDS011;6233;51.560;9.986;2023-05-10T14:20:37;3.37;;;2.87;;
12334;SDS011;6233;51.560;9.986;2023-05-10T14:23:39;3.87;;;3.40;;
12334;SDS011;6233;51.560;9.986;2023-05-10T14:26:41;3.60;;;3.20;;
12334;SDS011;6233;51.560;9.986;2023-05-10T14:29:43;4.50;;;3.23;;
12334;SDS011;6233;51.560;9.986;2023-05-10T14:32:44;6.17;;;3.27;;
12334;SDS011;6233;51.560;9.986;2023-05-10T14:35:46;2.90;;;2.67;;
12334;SDS011;6233;51.560;9.986;2023-05-10T14:38:48;3.30;;;3.00;;
12334;SDS011;6233;51.560;9.986;2023-05-10T14:41:50;5.37;;;2.80;;
12334;SDS011;6233;51.560;9.986;2023-05-10T14:44:53;5.60;;;4.27;;
12334;SDS011;6233;51.560;9.986;2023-05-10T14:47:54;4.03;;;3.47;;
12334;SDS011;6233;51.560;9.986;2023-05-10T14:50:56;6.47;;;4.40;;
12334;SDS011;6233;51.560;9.986;2023-05-10T14:53:58;6.97;;;4.83;;
12334;SDS011;6233;51.560;9.986;2023-05-10T14:57:00;9.23;;;6.03;;
12334;SDS011;6233;51.560;9.986;2023-05-10T15:00:02;5.53;;;4.87;;
12334;SDS011;6233;51.560;9.986;2023-05-10T15:03:05;7.97;;;6.60;;
12334;SDS011;6233;51.560;9.986;2023-05-10T15:06:08;5.27;;;4.70;;
12334;SDS011;6233;51.560;9.986;2023-05-10T15:09:10;7.37;;;4.60;;
12334;SDS011;6233;51.560;9.986;2023-05-10T15:12:11;4.10;;;3.60;;
12334;SDS011;6233;51.560;9.986;2023-05-10T15:15:13;4.83;;;4.27;;
12334;SDS011;6233;51.560;9.986;2023-05-10T15:18:16;5.03;;;3.30;;
12334;SDS011;6233;51.560;9.986;2023-05-10T15:21:18;4.80;;;4.00;;
12334;SDS011;6233;51.560;9.986;2023-05-10T15:24:20;6.50;;;5.60;;
12334;SDS011;6233;51.560;9.986;2023-05-10T15:27:23;7.73;;;5.83;;
12334;SDS011;6233;51.560;9.986;2023-05-10T15:30:24;5.40;;;4.70;;
12334;SDS011;6233;51.560;9.986;2023-05-10T15:33:26;5.23;;;4.17;;
12334;SDS011;6233;51.560;9.986;2023-05-10T15:36:28;4.23;;;3.57;;
12334;SDS011;6233;51.560;9.986;2023-05-10T15:39:30;3.63;;;3.10;;
12334;SDS011;6233;51.560;9.986;2023-05-10T15:42:32;5.57;;;4.10;;
12334;SDS011;6233;51.560;9.986;2023-05-10T15:45:34;6.07;;;3.20;;
12334;SDS011;6233;51.560;9.986;2023-05-10T15:48:37;5.50;;;3.60;;
12334;SDS011;6233;51.560;9.986;2023-05-10T15:51:40;4.43;;;3.30;;
12334;SDS011;6233;51.560;9.986;2023-05-10T15:54:42;3.47;;;2.50;;
12334;SDS011;6233;51.560;9.986;2023-05-10T15:57:44;3.77;;;3.20;;
12334;SDS011;6233;51.560;9.986;2023-05-10T16:00:45;3.80;;;3.13;;
12334;SDS011;6233;51.560;9.986;2023-05-10T16:03:47;3.03;;;2.73;;
12334;SDS011;6233;51.560;9.986;2023-05-10T16:06:49;4.00;;;3.60;;
12334;SDS011;6233;51.560;9.986;2023-05-10T16:09:51;3.63;;;3.20;;
12334;SDS011;6233;51.560;9.986;2023-05-10T16:12:53;5.20;;;3.80;;
12334;SDS011;6233;51.560;9.986;2023-05-10T16:15:55;3.90;;;3.13;;
12334;SDS011;6233;51.560;9.986;2023-05-10T16:19:00;4.00;;;3.60;;
12334;SDS011;6233;51.560;9.986;2023-05-10T16:22:03;6.13;;;4.10;;
12334;SDS011;6233;51.560;9.986;2023-05-10T16:25:05;4.27;;;3.83;;
12334;SDS011;6233;51.560;9.986;2023-05-10T16:28:07;4.97;;;3.97;;
12334;SDS011;6233;51.560;9.986;2023-05-10T16:31:09;7.20;;;4.80;;
12334;SDS011;6233;51.560;9.986;2023-05-10T16:34:11;7.40;;;5.97;;
12334;SDS011;6233;51.560;9.986;2023-05-10T16:37:12;4.73;;;4.07;;
12334;SDS011;6233;51.560;9.986;2023-05-10T16:40:14;5.63;;;4.30;;
12334;SDS011;6233;51.560;9.986;2023-05-10T16:43:16;4.67;;;4.27;;
12334;SDS011;6233;51.560;9.986;2023-05-10T16:46:18;5.23;;;4.40;;
12334;SDS011;6233;51.560;9.986;2023-05-10T16:49:19;5.30;;;4.20;;
12334;SDS011;6233;51.560;9.986;2023-05-10T16:52:23;4.10;;;3.70;;
12334;SDS011;6233;51.560;9.986;2023-05-10T16:55:24;5.10;;;4.17;;
12334;SDS011;6233;51.560;9.986;2023-05-10T16:58:26;5.40;;;4.30;;
12334;SDS011;6233;51.560;9.986;2023-05-10T17:01:28;5.77;;;4.40;;
12334;SDS011;6233;51.560;9.986;2023-05-10T17:04:30;4.37;;;3.97;;
12334;SDS011;6233;51.560;9.986;2023-05-10T17:07:31;5.60;;;4.40;;
12334;SDS011;6233;51.560;9.986;2023-05-10T17:10:33;4.63;;;4.23;;
12334;SDS011;6233;51.560;9.986;2023-05-10T17:13:35;7.20;;;6.00;;
12334;SDS011;6233;51.560;9.986;2023-05-10T17:16:38;7.33;;;6.20;;
12334;SDS011;6233;51.560;9.986;2023-05-10T17:19:40;8.53;;;6.57;;
12334;SDS011;6233;51.560;9.986;2023-05-10T17:22:45;9.03;;;7.40;;
12334;SDS011;6233;51.560;9.986;2023-05-10T17:25:47;10.10;;;7.43;;
12334;SDS011;6233;51.560;9.986;2023-05-10T17:28:48;9.00;;;6.00;;
12334;SDS011;6233;51.560;9.986;2023-05-10T17:31:50;8.17;;;6.13;;
12334;SDS011;6233;51.560;9.986;2023-05-10T17:34:52;6.80;;;6.10;;
12334;SDS011;6233;51.560;9.986;2023-05-10T17:37:54;8.63;;;6.13;;
12334;SDS011;6233;51.560;9.986;2023-05-10T17:40:55;10.27;;;7.27;;
12334;SDS011;6233;51.560;9.986;2023-05-10T17:43:57;14.23;;;8.53;;
12334;SDS011;6233;51.560;9.986;2023-05-10T17:46:59;9.67;;;7.53;;
12334;SDS011;6233;51.560;9.986;2023-05-10T17:50:01;9.37;;;7.40;;
12334;SDS011;6233;51.560;9.986;2023-05-10T17:53:02;11.40;;;8.50;;
12334;SDS011;6233;51.560;9.986;2023-05-10T17:56:04;10.50;;;7.97;;
12334;SDS011;6233;51.560;9.986;2023-05-10T17:59:06;9.40;;;7.07;;
12334;SDS011;6233;51.560;9.986;2023-05-10T18:02:08;10.60;;;8.30;;
12334;SDS011;6233;51.560;9.986;2023-05-10T18:05:10;10.13;;;7.50;;
12334;SDS011;6233;51.560;9.986;2023-05-10T18:08:12;10.07;;;7.90;;
12334;SDS011;6233;51.560;9.986;2023-05-10T18:11:14;8.33;;;6.93;;
12334;SDS011;6233;51.560;9.986;2023-05-10T18:14:16;10.37;;;7.83;;
12334;SDS011;6233;51.560;9.986;2023-05-10T18:17:36;7.23;;;6.50;;
12334;SDS011;6233;51.560;9.986;2023-05-10T18:20:38;7.57;;;6.37;;
12334;SDS011;6233;51.560;9.986;2023-05-10T18:23:41;8.10;;;6.30;;
12334;SDS011;6233;51.560;9.986;2023-05-10T18:26:42;8.57;;;6.47;;
12334;SDS011;6233;51.560;9.986;2023-05-10T18:29:44;8.83;;;6.93;;
12334;SDS011;6233;51.560;9.986;2023-05-10T18:32:48;8.53;;;6.60;;
12334;SDS011;6233;51.560;9.986;2023-05-10T18:35:50;9.60;;;7.30;;
12334;SDS011;6233;51.560;9.986;2023-05-10T18:38:52;9.40;;;7.60;;
12334;SDS011;6233;51.560;9.986;2023-05-10T18:41:54;8.47;;;7.13;;
12334;SDS011;6233;51.560;9.986;2023-05-10T18:44:56;8.00;;;7.20;;
12334;SDS011;6233;51.560;9.986;2023-05-10T18:47:57;9.03;;;7.07;;
12334;SDS011;6233;51.560;9.986;2023-05-10T18:50:59;9.00;;;6.70;;
12334;SDS011;6233;51.560;9.986;2023-05-10T18:54:01;9.33;;;6.80;;
12334;SDS011;6233;51.560;9.986;2023-05-10T18:57:03;8.83;;;7.43;;
12334;SDS011;6233;51.560;9.986;2023-05-10T19:00:09;8.30;;;6.97;;
12334;SDS011;6233;51.560;9.986;2023-05-10T19:03:12;7.00;;;5.90;;
12334;SDS011;6233;51.560;9.986;2023-05-10T19:06:13;10.07;;;7.43;;
12334;SDS011;6233;51.560;9.986;2023-05-10T19:09:15;9.47;;;6.63;;
12334;SDS011;6233;51.560;9.986;2023-05-10T19:12:20;9.67;;;7.27;;
12334;SDS011;6233;51.560;9.986;2023-05-10T19:15:21;9.10;;;7.43;;
12334;SDS011;6233;51.560;9.986;2023-05-10T19:18:24;8.97;;;7.80;;
12334;SDS011;6233;51.560;9.986;2023-05-10T19:21:26;11.63;;;9.77;;